Time;durP1;ratioP1;P1;durP2;ratioP2;P2;SDS_P1;SDS_P2;PMS_P1;PMS_P2;Temp;Humidity;BMP_temperature;BMP_pressure;BME280_temperature;BME280_humidity;BME280_pressure;Samples;Min_cycle;Max_cycle;Signal;HPM_P1;HPM_P2
2023/05/25 00:00:04;;;;;;;6.28;0.80;;;;;;;;;;1024438;28;20019;-74
2023/05/25 00:00:35;;;;;;;1.17;0.95;;;;;;;;;;1024149;28;20078;-74
2023/05/25 00:01:06;;;;;;;0.75;0.47;;;;;;;;;;1024560;28;20439;-74
2023/05/25 00:01:36;;;;;;;0.88;0.88;;;;;;;;;;1024182;28;20028;-74
2023/05/25 00:02:07;;;;;;;0.30;0.30;;;;;;;;;;1024584;28;20023;-74
2023/05/25 00:02:38;;;;;;;0.32;0.30;;;;;;;;;;1022260;29;20023;-74
2023/05/25 00:03:08;;;;;;;2.40;1.02;;;;;;;;;;1024409;28;20464;-74
2023/05/25 00:03:39;;;;;;;0.30;0.30;;;;;;;;;;1024266;28;20027;-74
2023/05/25 00:04:10;;;;;;;2.60;0.50;;;;;;;;;;1024540;28;20015;-74
2023/05/25 00:04:40;;;;;;;0.40;0.40;;;;;;;;;;1024254;28;20023;-74
2023/05/25 00:05:11;;;;;;;3.20;1.65;;;;;;;;;;1024376;28;20035;-74
2023/05/25 00:05:42;;;;;;;0.45;0.45;;;;;;;;;;1024309;28;20016;-74
2023/05/25 00:06:14;;;;;;;1.77;1.45;;;;;;;;;;1024451;28;20027;-74
2023/05/25 00:06:46;;;;;;;1.67;1.08;;;;;;;;;;1024229;28;20038;-74
2023/05/25 00:07:17;;;;;;;0.98;0.98;;;;;;;;;;1024382;28;20023;-74
2023/05/25 00:07:48;;;;;;;0.13;0.13;;;;;;;;;;1024367;28;20046;-74
2023/05/25 00:08:18;;;;;;;1.98;1.38;;;;;;;;;;1024408;28;20023;-74
2023/05/25 00:08:50;;;;;;;0.82;0.70;;;;;;;;;;1024315;28;20050;-74
2023/05/25 00:09:20;;;;;;;0.70;0.52;;;;;;;;;;1024394;28;20023;-74
2023/05/25 00:09:51;;;;;;;1.67;1.42;;;;;;;;;;1022273;29;20484;-74
2023/05/25 00:10:21;;;;;;;0.28;0.28;;;;;;;;;;1024406;28;20058;-74
2023/05/25 00:10:52;;;;;;;0.80;0.80;;;;;;;;;;1022095;29;20035;-74
2023/05/25 00:11:23;;;;;;;0.17;0.17;;;;;;;;;;1024087;29;20556;-74
2023/05/25 00:11:53;;;;;;;0.73;0.50;;;;;;;;;;1023975;28;20089;-74
2023/05/25 00:12:24;;;;;;;1.30;0.43;;;;;;;;;;1024033;29;20342;-74
2023/05/25 00:12:55;;;;;;;0.38;0.38;;;;;;;;;;1024440;28;20019;-74
2023/05/25 00:13:26;;;;;;;1.10;1.00;;;;;;;;;;1024180;28;20098;-74
2023/05/25 00:13:56;;;;;;;0.32;0.32;;;;;;;;;;1024419;28;20061;-74
2023/05/25 00:14:27;;;;;;;5.97;1.55;;;;;;;;;;1024385;28;20027;-74
2023/05/25 00:14:57;;;;;;;2.05;0.95;;;;;;;;;;1024383;28;20042;-74
2023/05/25 00:15:28;;;;;;;0.45;0.45;;;;;;;;;;1024065;28;20020;-74
2023/05/25 00:15:58;;;;;;;0.03;0.03;;;;;;;;;;1024010;29;20015;-74
2023/05/25 00:16:30;;;;;;;1.35;1.17;;;;;;;;;;1023756;28;20054;-74
2023/05/25 00:17:02;;;;;;;4.78;1.52;;;;;;;;;;1023999;29;20106;-74
2023/05/25 00:17:35;;;;;;;1.27;0.95;;;;;;;;;;1024347;28;20034;-74
2023/05/25 00:18:06;;;;;;;1.00;0.55;;;;;;;;;;1023982;29;20114;-74
2023/05/25 00:18:36;;;;;;;0.75;0.75;;;;;;;;;;1023963;29;20114;-74
2023/05/25 00:19:09;;;;;;;2.10;1.45;;;;;;;;;;1020007;29;20098;-74
2023/05/25 00:19:42;;;;;;;3.22;1.13;;;;;;;;;;1020238;29;20027;-74
2023/05/25 00:20:13;;;;;;;1.02;1.02;;;;;;;;;;1024038;29;20023;-74
2023/05/25 00:20:44;;;;;;;2.13;1.50;;;;;;;;;;1024002;29;20027;-74
2023/05/25 00:21:15;;;;;;;0.35;0.30;;;;;;;;;;1023969;29;20064;-74
2023/05/25 00:21:47;;;;;;;1.25;1.15;;;;;;;;;;1019878;29;20126;-74
2023/05/25 00:22:19;;;;;;;0.45;0.45;;;;;;;;;;1020164;29;20415;-74
2023/05/25 00:22:51;;;;;;;4.78;0.57;;;;;;;;;;1020446;29;20035;-74
2023/05/25 00:23:21;;;;;;;0.63;0.63;;;;;;;;;;1024076;29;20023;-74
2023/05/25 00:23:51;;;;;;;5.82;1.55;;;;;;;;;;1023877;29;20423;-74
2023/05/25 00:24:22;;;;;;;15.20;0.88;;;;;;;;;;1024039;29;20114;-74
2023/05/25 00:24:52;;;;;;;0.95;0.95;;;;;;;;;;1024164;29;20023;-74
2023/05/25 00:25:23;;;;;;;0.95;0.95;;;;;;;;;;1023425;29;20023;-75
2023/05/25 00:25:53;;;;;;;1.73;1.30;;;;;;;;;;1021324;29;20026;-75
2023/05/25 00:26:24;;;;;;;0.93;0.93;;;;;;;;;;1023955;28;20057;-75
2023/05/25 00:26:55;;;;;;;2.67;1.55;;;;;;;;;;1024051;29;20023;-75
2023/05/25 00:27:26;;;;;;;3.72;1.05;;;;;;;;;;1023694;29;20023;-75
2023/05/25 00:27:56;;;;;;;1.10;0.68;;;;;;;;;;1023818;29;20027;-74
2023/05/25 00:28:26;;;;;;;0.90;0.90;;;;;;;;;;1023967;29;20031;-74
2023/05/25 00:28:59;;;;;;;1.30;1.20;;;;;;;;;;1024035;29;20480;-74
2023/05/25 00:29:29;;;;;;;0.88;0.77;;;;;;;;;;1023672;29;20498;-74
2023/05/25 00:30:00;;;;;;;0.10;0.10;;;;;;;;;;1024129;29;20023;-75
2023/05/25 00:30:30;;;;;;;0.28;0.28;;;;;;;;;;1023896;29;20118;-75
2023/05/25 00:31:01;;;;;;;1.25;0.52;;;;;;;;;;1023946;29;20472;-75
2023/05/25 00:31:32;;;;;;;0.68;0.68;;;;;;;;;;1023988;28;20030;-75
2023/05/25 00:32:02;;;;;;;1.08;0.93;;;;;;;;;;1024373;28;20027;-74
2023/05/25 00:32:33;;;;;;;2.13;0.63;;;;;;;;;;1024119;28;20027;-74
2023/05/25 00:33:03;;;;;;;9.70;1.05;;;;;;;;;;1024380;28;20026;-74
2023/05/25 00:33:34;;;;;;;1.33;0.68;;;;;;;;;;1023674;28;20058;-74
2023/05/25 00:34:05;;;;;;;1.77;1.65;;;;;;;;;;1023593;29;20039;-74
2023/05/25 00:34:36;;;;;;;2.20;1.65;;;;;;;;;;1023772;29;20042;-75
2023/05/25 00:35:06;;;;;;;1.63;1.42;;;;;;;;;;1023919;29;20027;-75
2023/05/25 00:35:37;;;;;;;1.33;1.20;;;;;;;;;;1019705;29;20024;-75
2023/05/25 00:36:07;;;;;;;0.75;0.75;;;;;;;;;;1024194;29;20027;-74
2023/05/25 00:36:38;;;;;;;0.82;0.82;;;;;;;;;;1023838;28;20418;-74
2023/05/25 00:37:08;;;;;;;2.08;1.83;;;;;;;;;;1023821;29;20504;-75
2023/05/25 00:37:39;;;;;;;3.35;2.13;;;;;;;;;;1023194;29;20077;-74
2023/05/25 00:38:13;;;;;;;2.58;0.55;;;;;;;;;;1024327;28;20034;-75
2023/05/25 00:38:43;;;;;;;2.90;2.05;;;;;;;;;;1024146;28;20049;-74
2023/05/25 00:39:14;;;;;;;0.35;0.35;;;;;;;;;;1024163;28;20471;-75
2023/05/25 00:39:45;;;;;;;1.02;0.85;;;;;;;;;;1024201;28;20057;-75
2023/05/25 00:40:16;;;;;;;0.75;0.60;;;;;;;;;;1023667;28;20023;-74
2023/05/25 00:40:46;;;;;;;2.13;1.25;;;;;;;;;;1022793;28;20062;-75
2023/05/25 00:41:17;;;;;;;9.52;1.73;;;;;;;;;;1022876;29;20026;-75
2023/05/25 00:41:48;;;;;;;1.08;1.02;;;;;;;;;;1022866;28;20126;-75
2023/05/25 00:42:19;;;;;;;0.73;0.73;;;;;;;;;;1023992;28;20035;-75
2023/05/25 00:42:49;;;;;;;2.17;1.02;;;;;;;;;;1027459;28;20034;-75
2023/05/25 00:43:20;;;;;;;1.55;0.63;;;;;;;;;;1027407;28;20101;-75
2023/05/25 00:43:50;;;;;;;0.50;0.50;;;;;;;;;;1023223;29;20114;-75
2023/05/25 00:44:21;;;;;;;0.88;0.85;;;;;;;;;;1022850;29;20027;-75
2023/05/25 00:44:51;;;;;;;0.25;0.25;;;;;;;;;;1023616;29;20114;-74
2023/05/25 00:45:22;;;;;;;6.20;0.77;;;;;;;;;;1023566;29;20113;-75
2023/05/25 00:45:52;;;;;;;0.45;0.40;;;;;;;;;;1023720;28;20458;-75
2023/05/25 00:46:23;;;;;;;2.90;2.05;;;;;;;;;;1023305;29;20023;-75
2023/05/25 00:46:54;;;;;;;1.20;1.10;;;;;;;;;;1023474;29;20038;-75
2023/05/25 00:47:25;;;;;;;3.47;1.73;;;;;;;;;;1023439;29;20038;-75
2023/05/25 00:47:55;;;;;;;1.23;1.08;;;;;;;;;;1023749;29;20031;-75
2023/05/25 00:48:26;;;;;;;0.85;0.85;;;;;;;;;;1023842;28;20055;-75
2023/05/25 00:48:56;;;;;;;1.15;1.05;;;;;;;;;;1023565;28;20034;-75
2023/05/25 00:49:27;;;;;;;2.60;1.58;;;;;;;;;;1023024;28;20019;-75
2023/05/25 00:49:57;;;;;;;1.48;0.80;;;;;;;;;;1024028;28;20050;-74
2023/05/25 00:50:35;;;;;;;6.45;3.28;;;;;;;;;;1023883;28;20023;-75
2023/05/25 00:51:06;;;;;;;6.78;3.55;;;;;;;;;;1023966;28;20031;-75
2023/05/25 00:51:36;;;;;;;7.95;4.80;;;;;;;;;;1023373;28;20031;-75
2023/05/25 00:52:07;;;;;;;34.00;9.98;;;;;;;;;;1024138;28;20506;-75
2023/05/25 00:52:37;;;;;;;8.75;5.20;;;;;;;;;;1022116;29;20038;-75
2023/05/25 00:53:09;;;;;;;18.80;6.00;;;;;;;;;;1022295;28;20024;-75
2023/05/25 00:53:40;;;;;;;15.73;4.97;;;;;;;;;;1023765;28;20037;-75
2023/05/25 00:54:13;;;;;;;5.93;4.70;;;;;;;;;;1023898;28;20499;-75
2023/05/25 00:54:46;;;;;;;11.85;5.75;;;;;;;;;;1023997;28;20023;-75
2023/05/25 00:55:18;;;;;;;4.65;3.25;;;;;;;;;;1021526;29;20078;-75
2023/05/25 00:55:52;;;;;;;10.88;3.60;;;;;;;;;;1022115;29;20031;-75
2023/05/25 00:56:27;;;;;;;9.15;3.50;;;;;;;;;;1021522;29;20031;-77
2023/05/25 00:57:04;;;;;;;5.30;3.13;;;;;;;;;;1022402;29;20023;-75
2023/05/25 00:57:36;;;;;;;5.20;3.20;;;;;;;;;;1023068;29;20074;-75
2023/05/25 00:58:07;;;;;;;4.22;2.65;;;;;;;;;;1024022;28;20033;-75
2023/05/25 00:58:38;;;;;;;5.03;2.50;;;;;;;;;;1023667;28;20506;-75
2023/05/25 00:59:10;;;;;;;7.78;4.43;;;;;;;;;;1001166;28;20505;-75
2023/05/25 00:59:43;;;;;;;8.48;2.80;;;;;;;;;;1025960;28;20026;-75
2023/05/25 01:00:14;;;;;;;9.98;4.25;;;;;;;;;;1022853;29;20396;-75
2023/05/25 01:00:45;;;;;;;10.88;3.38;;;;;;;;;;1023550;29;20087;-75
2023/05/25 01:01:17;;;;;;;9.43;5.30;;;;;;;;;;1023499;29;20027;-75
2023/05/25 01:01:48;;;;;;;4.57;3.85;;;;;;;;;;1022522;29;20566;-75
2023/05/25 01:02:19;;;;;;;14.30;5.15;;;;;;;;;;1023409;29;21196;-75
2023/05/25 01:02:51;;;;;;;5.63;2.85;;;;;;;;;;1023512;29;20031;-75
2023/05/25 01:03:26;;;;;;;6.90;2.45;;;;;;;;;;1023611;29;20033;-75
2023/05/25 01:03:58;;;;;;;6.05;2.22;;;;;;;;;;1023398;28;20011;-75
2023/05/25 01:04:29;;;;;;;4.55;3.30;;;;;;;;;;1027345;28;20146;-75
2023/05/25 01:05:01;;;;;;;3.47;3.17;;;;;;;;;;1021824;29;20022;-75
2023/05/25 01:05:33;;;;;;;4.15;2.17;;;;;;;;;;1023198;29;20073;-75
2023/05/25 01:06:10;;;;;;;3.30;1.75;;;;;;;;;;1023775;29;20023;-75
2023/05/25 01:06:42;;;;;;;4.80;3.28;;;;;;;;;;1021822;28;20496;-75
2023/05/25 01:07:16;;;;;;;1.35;1.27;;;;;;;;;;1021811;29;20035;-75
2023/05/25 01:07:48;;;;;;;1.88;1.65;;;;;;;;;;1021827;29;20023;-75
2023/05/25 01:08:20;;;;;;;1.70;1.60;;;;;;;;;;1023795;28;20046;-75
2023/05/25 01:08:59;;;;;;;3.30;2.80;;;;;;;;;;1023788;28;20023;-75
2023/05/25 01:09:33;;;;;;;4.88;3.92;;;;;;;;;;1023573;28;20487;-75
2023/05/25 01:10:08;;;;;;;2.50;2.30;;;;;;;;;;1022920;29;20118;-75
2023/05/25 01:10:39;;;;;;;1.08;1.08;;;;;;;;;;1023209;28;20023;-75
2023/05/25 01:11:10;;;;;;;1.67;1.55;;;;;;;;;;1022559;28;20408;-75
2023/05/25 01:11:41;;;;;;;4.13;2.83;;;;;;;;;;1023161;28;20512;-75
2023/05/25 01:12:14;;;;;;;3.10;2.58;;;;;;;;;;1021229;29;20062;-75
2023/05/25 01:12:44;;;;;;;6.40;2.03;;;;;;;;;;1023491;29;20054;-75
2023/05/25 01:13:16;;;;;;;7.32;3.58;;;;;;;;;;1023379;29;20162;-75
2023/05/25 01:13:47;;;;;;;2.22;2.08;;;;;;;;;;1019945;29;20040;-75
2023/05/25 01:14:19;;;;;;;1.27;1.17;;;;;;;;;;1021546;29;20035;-75
2023/05/25 01:14:52;;;;;;;1.65;1.55;;;;;;;;;;1019369;29;20236;-75
2023/05/25 01:15:22;;;;;;;2.53;1.75;;;;;;;;;;1020133;29;20036;-75
2023/05/25 01:15:53;;;;;;;2.10;1.63;;;;;;;;;;1019385;29;20020;-75
2023/05/25 01:16:24;;;;;;;2.47;2.30;;;;;;;;;;1019781;29;20076;-75
2023/05/25 01:16:55;;;;;;;1.73;1.42;;;;;;;;;;1023431;29;20471;-75
2023/05/25 01:17:27;;;;;;;1.13;1.08;;;;;;;;;;1023382;29;20042;-75
2023/05/25 01:17:58;;;;;;;1.75;1.65;;;;;;;;;;1023463;29;20082;-75
2023/05/25 01:18:29;;;;;;;2.28;2.17;;;;;;;;;;1020307;29;20095;-75
2023/05/25 01:19:01;;;;;;;1.65;1.30;;;;;;;;;;1019505;28;20049;-75
2023/05/25 01:19:36;;;;;;;3.58;2.78;;;;;;;;;;1020316;29;20027;-75
2023/05/25 01:20:08;;;;;;;0.98;0.98;;;;;;;;;;1023358;28;20031;-75
2023/05/25 01:20:50;;;;;;;2.88;2.10;;;;;;;;;;1023601;28;20355;-75
2023/05/25 01:21:27;;;;;;;9.43;2.08;;;;;;;;;;1018457;29;20023;-75
2023/05/25 01:22:08;;;;;;;2.30;1.55;;;;;;;;;;1023835;28;20630;-75
2023/05/25 01:22:42;;;;;;;2.95;1.80;;;;;;;;;;1025732;28;20035;-75
2023/05/25 01:23:14;;;;;;;2.08;1.92;;;;;;;;;;1025301;28;20083;-75
2023/05/25 01:24:10;;;;;;;2.35;2.15;;;;;;;;;;1021148;28;20027;-75
2023/05/25 01:24:47;;;;;;;3.00;1.45;;;;;;;;;;1021682;29;20059;-75
2023/05/25 01:25:21;;;;;;;2.03;1.92;;;;;;;;;;1018355;29;20027;-75
2023/05/25 01:25:55;;;;;;;1.17;1.08;;;;;;;;;;1020486;29;20582;-75
2023/05/25 01:26:27;;;;;;;3.95;2.17;;;;;;;;;;1019064;28;20476;-75
2023/05/25 01:27:02;;;;;;;3.05;2.58;;;;;;;;;;1023546;29;20027;-75
2023/05/25 01:27:44;;;;;;;3.55;3.13;;;;;;;;;;1022032;29;20027;-75
2023/05/25 01:28:17;;;;;;;3.33;1.88;;;;;;;;;;1019316;28;20422;-75
2023/05/25 01:28:51;;;;;;;2.22;2.05;;;;;;;;;;1018306;29;20508;-75
2023/05/25 01:29:23;;;;;;;1.33;1.20;;;;;;;;;;1017140;29;20031;-75
2023/05/25 01:29:54;;;;;;;1.27;1.17;;;;;;;;;;1020573;28;20427;-75
2023/05/25 01:30:26;;;;;;;2.78;0.70;;;;;;;;;;1018916;29;20035;-75
2023/05/25 01:30:57;;;;;;;2.45;2.33;;;;;;;;;;1019326;29;20441;-75
2023/05/25 01:31:28;;;;;;;13.35;1.90;;;;;;;;;;1015585;28;20075;-75
2023/05/25 01:31:59;;;;;;;2.17;1.98;;;;;;;;;;1018339;29;20019;-75
2023/05/25 01:32:31;;;;;;;2.85;2.03;;;;;;;;;;1018358;29;20061;-75
2023/05/25 01:33:01;;;;;;;2.70;1.20;;;;;;;;;;1017596;28;20288;-75
2023/05/25 01:33:32;;;;;;;6.70;1.73;;;;;;;;;;1017338;29;20032;-75
2023/05/25 01:34:03;;;;;;;3.38;2.53;;;;;;;;;;1019580;29;20049;-75
2023/05/25 01:34:34;;;;;;;4.10;1.35;;;;;;;;;;1017024;29;20034;-75
2023/05/25 01:35:05;;;;;;;8.85;1.17;;;;;;;;;;1018744;29;20499;-75
2023/05/25 01:35:37;;;;;;;1.35;1.30;;;;;;;;;;1019911;29;20016;-75
2023/05/25 01:36:08;;;;;;;1.00;0.95;;;;;;;;;;1022948;28;20101;-75
2023/05/25 01:36:38;;;;;;;12.82;1.80;;;;;;;;;;1022435;28;20078;-75
2023/05/25 01:37:12;;;;;;;1.50;1.00;;;;;;;;;;1020984;29;20027;-75
2023/05/25 01:37:45;;;;;;;1.50;1.40;;;;;;;;;;1018169;29;20028;-75
2023/05/25 01:38:17;;;;;;;8.40;1.88;;;;;;;;;;1020053;29;20031;-75
2023/05/25 01:38:47;;;;;;;1.27;0.88;;;;;;;;;;1021790;29;20037;-75
2023/05/25 01:39:20;;;;;;;3.50;2.60;;;;;;;;;;1019320;29;20031;-75
2023/05/25 01:39:51;;;;;;;2.67;2.00;;;;;;;;;;1019741;29;20027;-75
2023/05/25 01:40:21;;;;;;;3.08;2.78;;;;;;;;;;1022399;28;20027;-75
2023/05/25 01:40:52;;;;;;;4.22;2.78;;;;;;;;;;1021648;28;20117;-75
2023/05/25 01:41:22;;;;;;;2.88;1.80;;;;;;;;;;1021994;28;20030;-75
2023/05/25 01:41:53;;;;;;;3.85;2.90;;;;;;;;;;1022411;29;20031;-76
2023/05/25 01:42:23;;;;;;;1.75;1.40;;;;;;;;;;1019472;28;20147;-76
2023/05/25 01:42:54;;;;;;;1.45;1.30;;;;;;;;;;1021911;29;20365;-76
2023/05/25 01:43:25;;;;;;;4.78;0.70;;;;;;;;;;1021888;28;20031;-76
2023/05/25 01:43:55;;;;;;;1.60;1.50;;;;;;;;;;1023243;28;20554;-76
2023/05/25 01:44:25;;;;;;;0.57;0.55;;;;;;;;;;1020158;29;20019;-76
2023/05/25 01:44:57;;;;;;;1.65;1.55;;;;;;;;;;1022032;29;20394;-76
2023/05/25 01:45:28;;;;;;;3.97;2.60;;;;;;;;;;1022535;28;20031;-76
2023/05/25 01:46:05;;;;;;;1.58;1.48;;;;;;;;;;1021171;28;20031;-76
2023/05/25 01:46:37;;;;;;;4.38;2.72;;;;;;;;;;1020019;28;20396;-76
2023/05/25 01:47:07;;;;;;;1.85;1.38;;;;;;;;;;1021681;28;20499;-76
2023/05/25 01:47:37;;;;;;;1.90;0.80;;;;;;;;;;1024233;28;20027;-76
2023/05/25 01:48:08;;;;;;;0.82;0.70;;;;;;;;;;1024395;28;20027;-76
2023/05/25 01:48:52;;;;;;;2.72;1.77;;;;;;;;;;1020672;29;20020;-76
2023/05/25 01:49:26;;;;;;;1.17;1.08;;;;;;;;;;1014865;29;20079;-76
2023/05/25 01:50:15;;;;;;;0.68;0.57;;;;;;;;;;1017093;29;20112;-76
2023/05/25 01:50:51;;;;;;;1.45;1.15;;;;;;;;;;1021772;29;20031;-76
2023/05/25 01:51:31;;;;;;;1.77;1.30;;;;;;;;;;1020442;29;20392;-76
2023/05/25 01:52:02;;;;;;;;;;;;;;;;;;1019639;29;20118;-76
2023/05/25 01:52:35;;;;;;;0.75;0.75;;;;;;;;;;1018997;29;19915;-76
2023/05/25 01:53:09;;;;;;;1.65;1.55;;;;;;;;;;1018825;29;20036;-76
2023/05/25 01:53:42;;;;;;;1.55;1.25;;;;;;;;;;1015593;29;20028;-76
2023/05/25 01:54:17;;;;;;;1.92;1.73;;;;;;;;;;1016238;29;20027;-75
2023/05/25 01:54:52;;;;;;;1.50;1.40;;;;;;;;;;1015209;29;20028;-76
2023/05/25 01:55:25;;;;;;;2.05;1.95;;;;;;;;;;1016491;29;20036;-76
2023/05/25 01:56:01;;;;;;;2.70;2.28;;;;;;;;;;1014533;29;20119;-76
2023/05/25 01:56:32;;;;;;;0.95;0.90;;;;;;;;;;1017778;28;20149;-76
2023/05/25 01:57:06;;;;;;;1.38;0.82;;;;;;;;;;1019039;29;20503;-76
2023/05/25 01:57:37;;;;;;;8.60;2.00;;;;;;;;;;1018263;29;20403;-76
2023/05/25 01:58:08;;;;;;;4.13;3.25;;;;;;;;;;1018132;29;20024;-74
2023/05/25 01:58:42;;;;;;;2.03;1.92;;;;;;;;;;1018931;28;20492;-76
2023/05/25 01:59:14;;;;;;;5.13;1.23;;;;;;;;;;1018969;28;20110;-76
2023/05/25 01:59:45;;;;;;;2.55;2.35;;;;;;;;;;1019725;29;20027;-76
2023/05/25 02:00:16;;;;;;;0.52;0.52;;;;;;;;;;1019154;28;20030;-76
2023/05/25 02:00:48;;;;;;;0.63;0.60;;;;;;;;;;1019049;29;20027;-76
2023/05/25 02:01:19;;;;;;;1.27;0.90;;;;;;;;;;1016657;29;20069;-76
2023/05/25 02:01:50;;;;;;;0.77;0.77;;;;;;;;;;1017746;29;20035;-76
2023/05/25 02:02:21;;;;;;;0.22;0.22;;;;;;;;;;1018582;29;20126;-76
2023/05/25 02:02:53;;;;;;;0.68;0.68;;;;;;;;;;1019492;29;20035;-76
2023/05/25 02:03:24;;;;;;;0.60;0.60;;;;;;;;;;1014377;29;20148;-76
2023/05/25 02:03:55;;;;;;;1.65;1.42;;;;;;;;;;1015848;29;20133;-76
2023/05/25 02:04:26;;;;;;;1.20;1.08;;;;;;;;;;1014726;29;20031;-76
2023/05/25 02:04:57;;;;;;;2.58;1.40;;;;;;;;;;1015356;29;20027;-76
2023/05/25 02:05:27;;;;;;;2.83;1.02;;;;;;;;;;1017107;29;20121;-76
2023/05/25 02:05:58;;;;;;;0.20;0.20;;;;;;;;;;1015884;29;20035;-76
2023/05/25 02:06:28;;;;;;;7.13;2.05;;;;;;;;;;1013842;29;20040;-77
2023/05/25 02:06:59;;;;;;;0.75;0.75;;;;;;;;;;1020830;29;20023;-74
2023/05/25 02:07:30;;;;;;;1.25;0.60;;;;;;;;;;1016150;29;20035;-76
2023/05/25 02:08:00;;;;;;;1.13;1.02;;;;;;;;;;1020809;29;20086;-77
2023/05/25 02:08:30;;;;;;;0.45;0.40;;;;;;;;;;1019265;29;20114;-76
2023/05/25 02:09:01;;;;;;;1.17;1.13;;;;;;;;;;1019536;29;20030;-76
2023/05/25 02:09:31;;;;;;;2.70;2.50;;;;;;;;;;1020527;29;20039;-76
2023/05/25 02:10:02;;;;;;;0.25;0.25;;;;;;;;;;1021767;28;20016;-76
2023/05/25 02:10:33;;;;;;;0.43;0.43;;;;;;;;;;1019501;29;20552;-76
2023/05/25 02:11:03;;;;;;;0.73;0.52;;;;;;;;;;1019992;29;20034;-76
2023/05/25 02:11:34;;;;;;;0.60;0.60;;;;;;;;;;1014617;29;20032;-76
2023/05/25 02:12:05;;;;;;;0.88;0.88;;;;;;;;;;1010658;29;20029;-76
2023/05/25 02:12:35;;;;;;;1.35;0.50;;;;;;;;;;1011341;29;20111;-76
2023/05/25 02:13:06;;;;;;;2.28;2.13;;;;;;;;;;1011665;29;20115;-77
2023/05/25 02:13:36;;;;;;;2.03;1.42;;;;;;;;;;1015565;29;20068;-76
2023/05/25 02:14:07;;;;;;;2.00;1.55;;;;;;;;;;1020229;28;20037;-76
2023/05/25 02:14:38;;;;;;;0.45;0.45;;;;;;;;;;1020010;29;20054;-76
2023/05/25 02:15:11;;;;;;;1.50;0.85;;;;;;;;;;1018339;29;20160;-76
2023/05/25 02:15:41;;;;;;;0.95;0.88;;;;;;;;;;1017422;29;20038;-76
2023/05/25 02:16:11;;;;;;;0.80;0.68;;;;;;;;;;1018991;28;20063;-75
2023/05/25 02:16:44;;;;;;;1.15;1.05;;;;;;;;;;1022798;28;20031;-76
2023/05/25 02:17:16;;;;;;;0.77;0.77;;;;;;;;;;1023986;28;20071;-76
2023/05/25 02:17:47;;;;;;;2.05;1.25;;;;;;;;;;1021436;28;20035;-76
2023/05/25 02:18:17;;;;;;;0.20;0.20;;;;;;;;;;1018640;29;20531;-76
2023/05/25 02:18:49;;;;;;;11.18;2.63;;;;;;;;;;1017474;29;20930;-76
2023/05/25 02:19:20;;;;;;;1.50;1.40;;;;;;;;;;1017086;29;21740;-75
2023/05/25 02:19:51;;;;;;;0.90;0.77;;;;;;;;;;1014552;29;20034;-75
2023/05/25 02:20:22;;;;;;;9.75;2.10;;;;;;;;;;1014166;29;20996;-76
2023/05/25 02:20:53;;;;;;;1.35;1.25;;;;;;;;;;1014442;29;20126;-79
2023/05/25 02:21:23;;;;;;;0.85;0.47;;;;;;;;;;1018587;29;20034;-76
2023/05/25 02:21:54;;;;;;;2.90;2.08;;;;;;;;;;1019513;28;20066;-77
2023/05/25 02:22:24;;;;;;;3.05;1.63;;;;;;;;;;1019919;28;20086;-76
2023/05/25 02:22:55;;;;;;;0.10;0.10;;;;;;;;;;1020812;28;20198;-76
2023/05/25 02:23:25;;;;;;;0.32;0.32;;;;;;;;;;1019420;28;20037;-76
2023/05/25 02:23:56;;;;;;;4.88;3.30;;;;;;;;;;1019809;29;20860;-76
2023/05/25 02:24:27;;;;;;;6.55;2.15;;;;;;;;;;1018041;28;21333;-77
2023/05/25 02:24:57;;;;;;;1.38;1.27;;;;;;;;;;1018641;29;20479;-76
2023/05/25 02:25:28;;;;;;;1.40;1.30;;;;;;;;;;1017334;29;20126;-77
2023/05/25 02:25:58;;;;;;;1.08;0.77;;;;;;;;;;1020696;29;20034;-76
2023/05/25 02:26:29;;;;;;;1.25;0.80;;;;;;;;;;1019562;28;20046;-76
2023/05/25 02:27:00;;;;;;;1.02;0.93;;;;;;;;;;1021658;29;20046;-76
2023/05/25 02:27:31;;;;;;;1.08;1.02;;;;;;;;;;1015338;29;20082;-77
2023/05/25 02:28:01;;;;;;;0.90;0.75;;;;;;;;;;1012386;29;20154;-77
2023/05/25 02:28:32;;;;;;;1.90;0.60;;;;;;;;;;1015308;29;20027;-76
2023/05/25 02:29:03;;;;;;;0.77;0.77;;;;;;;;;;1017286;29;20553;-77
2023/05/25 02:29:33;;;;;;;2.10;1.63;;;;;;;;;;1014766;29;20087;-76
2023/05/25 02:30:04;;;;;;;0.88;0.88;;;;;;;;;;1016461;29;20035;-77
2023/05/25 02:30:35;;;;;;;2.03;0.77;;;;;;;;;;1015223;29;20024;-77
2023/05/25 02:31:05;;;;;;;0.10;0.10;;;;;;;;;;1014057;29;20059;-76
2023/05/25 02:31:36;;;;;;;0.65;0.65;;;;;;;;;;1014522;29;20024;-77
2023/05/25 02:32:06;;;;;;;0.38;0.38;;;;;;;;;;1019352;29;20117;-77
2023/05/25 02:32:37;;;;;;;5.18;1.23;;;;;;;;;;1018391;29;20078;-77
2023/05/25 02:33:07;;;;;;;2.30;1.02;;;;;;;;;;1019639;29;20029;-76
2023/05/25 02:33:38;;;;;;;4.63;2.70;;;;;;;;;;1018272;29;20027;-76
2023/05/25 02:34:08;;;;;;;1.17;0.90;;;;;;;;;;1019719;28;20630;-76
2023/05/25 02:34:39;;;;;;;0.10;0.10;;;;;;;;;;1018085;28;21031;-76
2023/05/25 02:35:10;;;;;;;1.63;1.52;;;;;;;;;;1018805;29;20173;-77
2023/05/25 02:35:40;;;;;;;4.03;1.65;;;;;;;;;;1019302;29;20046;-77
2023/05/25 02:36:11;;;;;;;1.10;1.00;;;;;;;;;;1021272;29;20443;-76
2023/05/25 02:36:42;;;;;;;6.57;1.75;;;;;;;;;;1010989;29;20032;-77
2023/05/25 02:37:13;;;;;;;4.47;3.22;;;;;;;;;;1017566;29;20023;-76
2023/05/25 02:37:44;;;;;;;1.55;1.10;;;;;;;;;;1017970;29;20131;-76
2023/05/25 02:38:14;;;;;;;0.30;0.28;;;;;;;;;;1017323;29;20412;-77
2023/05/25 02:38:46;;;;;;;2.75;2.10;;;;;;;;;;1019015;29;20027;-76
2023/05/25 02:39:16;;;;;;;1.70;1.38;;;;;;;;;;1016324;29;20123;-77
2023/05/25 02:39:48;;;;;;;0.85;0.50;;;;;;;;;;1018501;29;20049;-76
2023/05/25 02:40:18;;;;;;;1.85;1.33;;;;;;;;;;1016010;29;20531;-77
2023/05/25 02:40:49;;;;;;;0.60;0.60;;;;;;;;;;1014494;29;20027;-77
2023/05/25 02:41:20;;;;;;;4.00;1.80;;;;;;;;;;1018200;29;20497;-77
2023/05/25 02:41:50;;;;;;;3.78;0.70;;;;;;;;;;1016857;29;20031;-76
2023/05/25 02:42:21;;;;;;;1.33;1.05;;;;;;;;;;1017352;29;20400;-78
2023/05/25 02:42:51;;;;;;;4.18;2.45;;;;;;;;;;1018701;29;20075;-78
2023/05/25 02:43:22;;;;;;;1.20;0.77;;;;;;;;;;1016944;29;20035;-76
2023/05/25 02:43:52;;;;;;;1.52;0.90;;;;;;;;;;1017580;29;20105;-76
2023/05/25 02:44:23;;;;;;;0.98;0.98;;;;;;;;;;1016724;29;20131;-76
2023/05/25 02:44:54;;;;;;;1.15;1.05;;;;;;;;;;1016837;29;20023;-76
2023/05/25 02:45:24;;;;;;;0.82;0.73;;;;;;;;;;1015855;29;20559;-77
2023/05/25 02:45:55;;;;;;;0.90;0.55;;;;;;;;;;1014580;29;20028;-77
2023/05/25 02:46:26;;;;;;;2.10;1.63;;;;;;;;;;1015448;28;20684;-77
2023/05/25 02:46:57;;;;;;;0.40;0.40;;;;;;;;;;1017740;29;20061;-77
2023/05/25 02:47:28;;;;;;;1.05;0.95;;;;;;;;;;1016695;29;20028;-77
2023/05/25 02:47:58;;;;;;;0.90;0.88;;;;;;;;;;1017286;28;20073;-77
2023/05/25 02:48:29;;;;;;;3.00;1.38;;;;;;;;;;1018577;28;20028;-77
2023/05/25 02:49:00;;;;;;;0.30;0.30;;;;;;;;;;1017358;29;20130;-77
2023/05/25 02:49:30;;;;;;;0.10;0.10;;;;;;;;;;1019182;28;20747;-77
2023/05/25 02:50:01;;;;;;;2.15;1.48;;;;;;;;;;1016850;29;20028;-77
2023/05/25 02:50:33;;;;;;;1.45;1.35;;;;;;;;;;1017319;29;20054;-77
2023/05/25 02:51:03;;;;;;;3.33;2.10;;;;;;;;;;1018366;29;20484;-77
2023/05/25 02:51:34;;;;;;;0.43;0.43;;;;;;;;;;1015913;28;20043;-77
2023/05/25 02:52:05;;;;;;;3.05;0.85;;;;;;;;;;1017853;29;20028;-77
2023/05/25 02:52:35;;;;;;;14.45;3.42;;;;;;;;;;1017581;29;20592;-77
2023/05/25 02:53:06;;;;;;;0.52;0.52;;;;;;;;;;1012520;29;20123;-77
2023/05/25 02:53:36;;;;;;;0.20;0.20;;;;;;;;;;1013812;29;20055;-77
2023/05/25 02:54:07;;;;;;;1.80;1.20;;;;;;;;;;1017142;29;20144;-77
2023/05/25 02:54:38;;;;;;;1.00;0.95;;;;;;;;;;1014174;29;20024;-77
2023/05/25 02:55:17;;;;;;;3.50;1.88;;;;;;;;;;1019362;29;20035;-77
2023/05/25 02:55:48;;;;;;;0.43;0.43;;;;;;;;;;1015737;29;20811;-77
2023/05/25 02:56:18;;;;;;;1.45;0.90;;;;;;;;;;1018761;29;20033;-77
2023/05/25 02:56:49;;;;;;;1.05;0.65;;;;;;;;;;1015863;29;20031;-77
2023/05/25 02:57:20;;;;;;;0.25;0.25;;;;;;;;;;1016062;29;20031;-77
2023/05/25 02:57:51;;;;;;;0.20;0.20;;;;;;;;;;1013618;29;20036;-77
2023/05/25 02:58:21;;;;;;;0.80;0.60;;;;;;;;;;1009810;29;20033;-77
2023/05/25 02:58:54;;;;;;;3.03;1.88;;;;;;;;;;1011698;29;20032;-77
2023/05/25 02:59:24;;;;;;;1.50;1.17;;;;;;;;;;1012424;29;20687;-77
2023/05/25 02:59:55;;;;;;;1.77;1.15;;;;;;;;;;1014160;29;20038;-77
2023/05/25 03:00:26;;;;;;;1.23;1.13;;;;;;;;;;1017207;29;20496;-77
2023/05/25 03:00:58;;;;;;;0.70;0.70;;;;;;;;;;1017563;29;20126;-77
2023/05/25 03:01:30;;;;;;;0.68;0.68;;;;;;;;;;1014757;29;20023;-78
2023/05/25 03:02:00;;;;;;;0.45;0.45;;;;;;;;;;1015157;29;20032;-77
2023/05/25 03:02:31;;;;;;;2.78;1.05;;;;;;;;;;1015374;29;20488;-76
2023/05/25 03:03:02;;;;;;;0.35;0.20;;;;;;;;;;1016926;29;20059;-76
2023/05/25 03:03:32;;;;;;;1.38;1.17;;;;;;;;;;1019407;29;20053;-76
2023/05/25 03:04:03;;;;;;;1.02;0.98;;;;;;;;;;1017207;29;20126;-78
2023/05/25 03:04:36;;;;;;;2.28;2.08;;;;;;;;;;1017070;29;20083;-78
2023/05/25 03:05:07;;;;;;;0.55;0.50;;;;;;;;;;1015615;29;20059;-76
2023/05/25 03:05:38;;;;;;;1.00;0.30;;;;;;;;;;1017544;29;21001;-76
2023/05/25 03:06:08;;;;;;;1.27;0.77;;;;;;;;;;1018786;29;20395;-76
2023/05/25 03:06:39;;;;;;;8.20;2.50;;;;;;;;;;1018291;28;20549;-76
2023/05/25 03:07:09;;;;;;;0.70;0.40;;;;;;;;;;1017384;29;20115;-76
2023/05/25 03:07:41;;;;;;;0.52;0.52;;;;;;;;;;1019129;29;20510;-76
2023/05/25 03:08:12;;;;;;;0.38;0.38;;;;;;;;;;1016094;29;20138;-78
2023/05/25 03:08:42;;;;;;;3.25;2.20;;;;;;;;;;1015739;29;20043;-76
2023/05/25 03:09:13;;;;;;;4.13;2.75;;;;;;;;;;1017508;29;20086;-77